METAR / TAF

Die METAR- und TAF-Liste ist aus technischen Gründen (Verfügbarkeit, Update-Zyklen) nicht für ein Meteo-Briefing gedacht. Benutzen Sie stattdessen skybriefing der Skyguide  oder das TAMSI (MeteoSchweiz-eigene Meteo Selfbriefing-Plattform für Firmen aus der Aviatik; Anfragen über das

Kontaktformular

METAR Schweiz

METAR     LSZH 231720Z 05009KT CAVOK 16/05 Q1011 NOSIG=
METAR     LSZH 231750Z 04010KT CAVOK 16/05 Q1011 NOSIG=
METAR     LSGG 231720Z 26005KT 9999 FEW015 SCT090 BKN300 13/06
               Q1010 NOSIG=
METAR     LSGG 231750Z 24004KT 9999 FEW050 SCT100 BKN300 13/07
               Q1011 NOSIG=
METAR     LFSB 231730Z 35009KT 320V020 9999 FEW040 BKN120 BKN190
               15/08 Q1010 NOSIG=
METAR     LSZB 231720Z VRB02KT CAVOK 14/08 Q1010 NOSIG=
METAR     LSZB 231750Z 23003KT 210V290 CAVOK 12/08 Q1010 NOSIG=
METAR     LSZA 231720Z VRB01KT 3500 RA BR FEW005 SCT020 BKN030
               10/10 Q1019 NOSIG=
METAR     LSZA 231750Z 35003KT 310V070 9000 -RA FEW008 BKN030
               BKN050 11/10 Q1019 NOSIG=
METAR     LSZG 231720Z 07005KT CAVOK 13/07 Q1010 NOSIG=
METAR     LSZG 231750Z 07004KT CAVOK 14/07 Q1010 NOSIG=
METAR     LSZR 231720Z 06006KT CAVOK 17/04 Q1011 NOSIG RMK N=
METAR     LSZR 231750Z 07005KT 030V190 CAVOK 14/04 Q1011 NOSIG RMK
               N=
METAR     LSGS 231720Z 10015KT 9999 FEW070 SCT120 14/03 Q1012=
METAR     LSGS 231750Z 11008KT 080V160 9999 FEW070 SCT120 14/03
               Q1012=
METAR     LSGC 231720Z AUTO 07008KT 030V120 9999 NCD 11/04 Q1010=
METAR     LSGC 231750Z AUTO 08006KT 040V150 9999 //////TCU 10/04
               Q1011=
METAR     LSZC 231720Z AUTO 26004KT 210V360 9999 NCD 14/06 Q1010=
METAR     LSZC 231750Z AUTO VRB04KT 9999 FEW100 13/06 Q1011=
METAR RRA LSZL 231750Z AUTO VRB02KT 7000NDV RA BKN034 BKN040 OVC060
               09/09 Q1019 RERA RMK=
METAR     LSZL 231720Z NIL=
METAR     LSZS 231720Z 20003KT 110V250 8000 -DZ SCT020 BKN040 03/00
               Q1017 RMK D=
METAR     LSZS 231750Z 22003KT 170V250 8000 -DZ SCT020 BKN040 02/01
               Q1017 RMK E=
METAR RRA LSMA 231750Z AUTO VRB02KT 9999NDV NCD 12/06 Q1010 RMK=
METAR     LSMA NIL=
METAR RRA LSMD 231750Z AUTO VRB02KT 9999NDV SCT140 15/06 Q1011 RMK=
METAR     LSMD NIL=
METAR RRA LSME 231750Z AUTO 33003KT 280V090 9999NDV NCD 15/02 Q1010
               RMK=
METAR     LSME NIL=
METAR RRA LSMM 231750Z AUTO 10019KT 070V140 9999NDV NCD 14/02 Q1010
               RMK=
METAR     LSMM NIL=
METAR RRA LSMP 231750Z AUTO 03004KT 9999NDV FEW130 13/08 Q1010 RMK=
METAR     LSMP NIL=
METAR     LSMS 231750Z 11008KT 080V160 9999 FEW070 SCT120 14/03
               Q1012=
METAR     LSMS NIL=
Aktualisiert am Donnerstag, 23. März 2017, 19:14 Uhr

TAF Schweiz

TAF     LSZH 231425Z 2315/2421 05010KT CAVOK TX16/2315Z TN05/2406Z
             TX17/2415Z BECMG 2317/2320 13006KT BECMG 2402/2405
             8000 NSC PROB30 2404/2407 4000 MIFG BECMG 2407/2410
             05010KT CAVOK PROB40 TEMPO 2411/2417 06015G28KT BECMG
             2418/2421 9999 SCT015=
TAF     LSGG 231425Z 2315/2421 VRB03KT 9999 FEW020 BKN100
             TX12/2315Z TN05/2403Z TX14/2415Z BECMG 2409/2411
             05007KT=
TAF     LFSB 231100Z 2312/2412 36010KT 9999 FEW030 SCT140 BKN250
             BECMG 2318/2320 28005KT PROB40 TEMPO 2321/2401 4000
             BR BECMG 2401/2403 3000 BR SCT015 BKN180 PROB40 TEMPO
             2404/2408 0500 FG VV/// BECMG 2408/2410 6000 NSW
             BKN020=
TAF CCA LSGS 231425Z 2315/2324 08020G30KT 9999 SCT070 BKN120 TEMPO
             2317/2324 VRB04KT=
TAF     LSZA 231425Z 2315/2324 VRB03KT 9000 FEW015 SCT030 BKN050
             TEMPO 2315/2324 SHRA SCT030TCU PROB30 TEMPO 2315/2322
             3000 TSRA SCT030CB=
TAF     LSZB 231425Z 2315/2324 02005KT CAVOK=
TAF     LSZG 231425Z 2315/2324 08012KT CAVOK BECMG 2320/2323
             08004KT 4500 MIFG=
TAF     LSZL 231125Z 2312/2321 VRB03KT 7000 -SHRA FEW010 SCT035
             BKN060 PROB40 TEMPO 2312/2321 4000 SHRA SCT030TCU
             PROB30 2312/2318 3000 TSRA SCT030CB=
TAF     LSZR 231425Z 2315/2324 05010KT CAVOK PROB40 TEMPO 2316/2321
             15012G25KT BECMG 2317/2320 VRB03KT=
TAF     LSGC 231425Z 2315/2324 08007KT CAVOK=
TAF     LSZC 231425Z 2315/2324 09006KT CAVOK BECMG 2321/2324 4500
             BR=
TAF     LSZS 231425Z 2315/2324 22009KT 7000 SCT030 BKN040
             TX04/2315Z PROB40 TEMPO 2315/2321 4500 SHSNRA BKN014=
TAF     LSMA 230925Z 2310/2416 06006KT 9999 FEW100 PROB30 2402/2404
             4000 MIFG TEMPO 2408/2416 CAVOK=
TAF     LSMD 230925Z 2310/2416 VRB02KT 9999 FEW008 BECMG 2310/2312
             05012KT CAVOK BECMG 2317/2320 VRB02KT BECMG 2400/2403
             7000 NSC PROB30 2404/2407 2000 PRFG BKN004 BECMG
             2407/2410 05012KT CAVOK=
TAF     LSME 230925Z 2310/2416 04005KT 9999 FEW080 PROB30 2314/2316
             14010G25KT PROB30 2404/2407 2000 BCFG BKN004 BECMG
             2407/2410 CAVOK=
TAF     LSMM 230925Z 2310/2416 26009KT 9999 FEW110 PROB40 2312/2318
             09020G35KT TEMPO 2408/2416 CAVOK PROB30 2412/2416
             09015G25KT=
TAF     LSMP 230925Z 2310/2416 06004KT 9999 FEW030 BKN120 BECMG
             2404/2406 VRB03KT 4500 BR BECMG 2410/2412 04007KT
             9999=
Aktualisiert am Donnerstag, 23. März 2017, 17:08 Uhr